createdAt,value
2018-09-17T00:01:34.651Z,60.86
2018-09-17T00:04:03.153Z,61.44
2018-09-17T00:06:31.715Z,60.79
2018-09-17T00:09:01.503Z,61.24
2018-09-17T00:11:30.320Z,61.26
2018-09-17T00:14:00.015Z,61.50
2018-09-17T00:16:29.089Z,61.37
2018-09-17T00:18:58.163Z,61.73
2018-09-17T00:21:26.697Z,61.43
2018-09-17T00:23:57.648Z,61.85
2018-09-17T00:26:26.642Z,61.86
2018-09-17T00:28:55.209Z,62.09
2018-09-17T00:31:24.123Z,61.86
2018-09-17T00:33:53.346Z,62.13
2018-09-17T00:36:21.959Z,62.58
2018-09-17T00:38:50.976Z,62.13
2018-09-17T00:41:20.732Z,62.32
2018-09-17T00:43:49.275Z,61.87
2018-09-17T00:46:17.922Z,61.82
2018-09-17T00:48:46.553Z,62.44
2018-09-17T00:51:16.438Z,62.95
2018-09-17T00:53:44.919Z,62.60
2018-09-17T00:56:13.485Z,63.15
2018-09-17T00:58:42.042Z,63.28
2018-09-17T01:01:10.699Z,63.52
2018-09-17T01:03:39.590Z,63.94
2018-09-17T01:06:10.453Z,63.76
2018-09-17T01:08:40.117Z,63.98
2018-09-17T01:11:10.010Z,64.22
2018-09-17T01:13:39.014Z,64.05
2018-09-17T01:16:08.995Z,64.06
2018-09-17T01:18:38.184Z,64.54
2018-09-17T01:21:07.744Z,64.80
2018-09-17T01:23:36.436Z,64.38
2018-09-17T01:26:06.710Z,64.38
2018-09-17T01:28:37.136Z,64.12
2018-09-17T01:31:07.472Z,64.44
2018-09-17T01:33:37.284Z,64.44
2018-09-17T01:36:05.781Z,64.58
2018-09-17T01:38:34.584Z,64.46
2018-09-17T01:41:03.418Z,64.03
2018-09-17T01:43:33.178Z,63.63
2018-09-17T01:46:02.794Z,64.04
2018-09-17T01:48:33.166Z,63.46
2018-09-17T01:51:02.157Z,63.82
2018-09-17T01:53:30.787Z,62.89
2018-09-17T01:56:00.022Z,63.40
2018-09-17T01:58:30.400Z,63.68
2018-09-17T02:00:59.908Z,63.85
2018-09-17T02:03:28.820Z,63.76
2018-09-17T02:05:57.547Z,62.47
2018-09-17T02:08:26.441Z,62.32
2018-09-17T02:10:55.002Z,61.73
2018-09-17T02:13:23.617Z,61.60
2018-09-17T02:15:52.243Z,61.63
2018-09-17T02:18:20.752Z,60.86
2018-09-17T02:20:49.245Z,61.25
2018-09-17T02:23:17.784Z,60.89
2018-09-17T02:25:46.342Z,61.42
2018-09-17T02:28:14.850Z,61.60
2018-09-17T02:30:43.629Z,60.74
2018-09-17T02:33:12.127Z,60.71
2018-09-17T02:35:40.652Z,61.00
2018-09-17T02:38:09.214Z,61.08
2018-09-17T02:40:38.282Z,61.42
2018-09-17T02:43:07.797Z,61.79
2018-09-17T02:45:36.680Z,61.44
2018-09-17T02:48:05.364Z,61.23
2018-09-17T02:50:34.147Z,61.20
2018-09-17T02:53:02.759Z,61.04
2018-09-17T02:55:32.197Z,61.34
2018-09-17T02:58:00.736Z,61.08
2018-09-17T03:00:29.308Z,61.06
2018-09-17T03:02:58.237Z,61.10
2018-09-17T03:05:26.738Z,61.76
2018-09-17T03:07:55.368Z,61.69
2018-09-17T03:10:24.376Z,62.28
2018-09-17T03:12:52.977Z,62.89
2018-09-17T03:15:32.633Z,62.96
2018-09-17T03:18:01.127Z,63.49
2018-09-17T03:20:29.660Z,64.15
2018-09-17T03:22:58.288Z,63.76
2018-09-17T03:25:26.784Z,64.25
2018-09-17T03:27:55.319Z,64.12
2018-09-17T03:30:23.974Z,64.52
2018-09-17T03:32:52.420Z,64.75
2018-09-17T03:35:20.979Z,64.62
2018-09-17T03:37:49.949Z,64.47
2018-09-17T03:40:18.744Z,64.52
2018-09-17T03:42:47.615Z,64.44
2018-09-17T03:45:16.250Z,64.88
2018-09-17T03:47:46.316Z,64.59
2018-09-17T03:50:15.018Z,64.60
2018-09-17T03:52:44.205Z,64.74
2018-09-17T03:55:13.148Z,64.56
2018-09-17T03:57:41.940Z,64.96
2018-09-17T04:00:11.096Z,65.04
2018-09-17T04:02:39.882Z,64.73
2018-09-17T04:05:08.604Z,64.97
2018-09-17T04:07:37.890Z,64.94
2018-09-17T04:10:06.716Z,64.89
2018-09-17T04:12:35.680Z,64.58
2018-09-17T04:15:04.588Z,64.92
2018-09-17T04:17:33.345Z,64.65
2018-09-17T04:20:02.593Z,65.05
2018-09-17T04:22:31.664Z,64.92
2018-09-17T04:25:01.666Z,65.54
2018-09-17T04:27:30.934Z,64.85
2018-09-17T04:29:59.787Z,65.19
2018-09-17T04:32:38.012Z,64.94
2018-09-17T04:35:07.815Z,65.90
2018-09-17T04:37:38.255Z,65.30
2018-09-17T04:40:08.558Z,65.01
2018-09-17T04:42:38.719Z,64.83
2018-09-17T04:45:07.711Z,64.96
2018-09-17T04:47:36.667Z,64.91
2018-09-17T04:50:05.420Z,65.56
2018-09-17T04:52:39.164Z,65.97
2018-09-17T04:55:10.420Z,66.15
2018-09-17T04:57:39.294Z,66.92
2018-09-17T05:00:08.662Z,67.88
2018-09-17T05:02:37.632Z,67.96
2018-09-17T05:05:06.845Z,67.84
2018-09-17T05:07:35.843Z,68.67
2018-09-17T05:10:04.490Z,68.98
2018-09-17T05:12:33.274Z,69.46
2018-09-17T05:15:02.596Z,69.97
2018-09-17T05:17:32.259Z,69.42
2018-09-17T05:20:01.326Z,69.33
2018-09-17T05:22:39.530Z,68.81
2018-09-17T05:25:08.598Z,68.68
2018-09-17T05:27:37.520Z,68.74
2018-09-17T05:30:06.200Z,67.22
2018-09-17T05:32:34.975Z,67.15
2018-09-17T05:35:03.715Z,66.78
2018-09-17T05:37:32.636Z,66.30
2018-09-17T05:40:01.531Z,66.10
2018-09-17T05:42:30.865Z,66.45
2018-09-17T05:44:59.637Z,66.84
2018-09-17T05:47:28.428Z,66.44
2018-09-17T05:49:57.288Z,66.46
2018-09-17T05:52:26.277Z,66.73
2018-09-17T05:54:55.940Z,66.43
2018-09-17T05:57:24.612Z,66.31
2018-09-17T05:59:53.658Z,65.65
2018-09-17T06:02:22.442Z,65.86
2018-09-17T06:04:51.483Z,65.93
2018-09-17T06:07:20.174Z,65.34
2018-09-17T06:09:49.958Z,65.12
2018-09-17T06:12:18.690Z,65.24
2018-09-17T06:14:47.450Z,64.99
2018-09-17T06:17:16.337Z,65.34
2018-09-17T06:19:45.458Z,64.93
2018-09-17T06:22:14.269Z,64.53
2018-09-17T06:24:42.856Z,64.65
2018-09-17T06:27:11.704Z,64.32
2018-09-17T06:29:40.607Z,63.99
2018-09-17T06:32:09.220Z,64.16
2018-09-17T06:34:37.862Z,63.76
2018-09-17T06:37:06.872Z,63.99
2018-09-17T06:39:36.051Z,64.10
2018-09-17T06:42:04.637Z,63.77
2018-09-17T06:44:33.378Z,63.94
2018-09-17T06:47:02.106Z,63.32
2018-09-17T06:49:30.796Z,63.38
2018-09-17T06:52:04.528Z,62.94
2018-09-17T06:54:34.213Z,62.75
2018-09-17T06:57:03.822Z,62.94
2018-09-17T06:59:33.108Z,62.74
2018-09-17T07:02:01.794Z,62.55
2018-09-17T07:04:30.502Z,62.20
2018-09-17T07:06:59.177Z,61.82
2018-09-17T07:09:27.946Z,61.85
2018-09-17T07:11:56.659Z,62.07
2018-09-17T07:14:25.514Z,61.52
2018-09-17T07:16:54.642Z,61.35
2018-09-17T07:19:23.458Z,61.22
2018-09-17T07:21:59.108Z,61.14
2018-09-17T07:24:41.858Z,61.24
2018-09-17T07:27:10.530Z,61.10
2018-09-17T07:29:38.983Z,60.28
2018-09-17T07:32:07.980Z,60.21
2018-09-17T07:34:36.982Z,59.67
2018-09-17T07:37:05.639Z,60.16
2018-09-17T07:39:34.330Z,59.99
2018-09-17T07:42:03.085Z,59.60
2018-09-17T07:44:32.020Z,59.42
2018-09-17T07:47:00.752Z,58.85
2018-09-17T07:49:29.518Z,58.36
2018-09-17T07:51:58.242Z,57.65
2018-09-17T07:54:28.351Z,57.42
2018-09-17T07:56:56.991Z,57.38
2018-09-17T07:59:25.614Z,57.24
2018-09-17T08:01:56.189Z,57.13
2018-09-17T08:07:09.020Z,56.62
2018-09-17T08:09:38.312Z,55.66
2018-09-17T08:12:07.107Z,55.61
2018-09-17T08:14:35.821Z,54.82
2018-09-17T08:17:05.041Z,54.24
2018-09-17T08:19:33.637Z,54.14
2018-09-17T08:22:02.361Z,53.12
2018-09-17T08:24:31.963Z,53.41
2018-09-17T08:27:00.541Z,53.05
2018-09-17T08:29:29.126Z,52.36
2018-09-17T08:31:58.167Z,51.68
2018-09-17T08:34:26.702Z,51.32
2018-09-17T08:36:55.360Z,50.51
2018-09-17T08:39:23.947Z,49.90
2018-09-17T08:41:52.533Z,50.42
2018-09-17T08:44:21.111Z,49.34
2018-09-17T08:46:49.661Z,48.34
2018-09-17T08:49:18.236Z,47.82
2018-09-17T08:51:46.898Z,48.38
2018-09-17T08:54:15.571Z,48.42
2018-09-17T08:56:50.224Z,47.77
2018-09-17T08:59:24.235Z,47.31
2018-09-17T09:01:57.912Z,47.56
2018-09-17T09:04:26.621Z,46.20
2018-09-17T09:06:55.439Z,45.22
2018-09-17T09:09:24.276Z,45.21
2018-09-17T09:11:56.993Z,44.60
2018-09-17T09:14:42.943Z,43.67
2018-09-17T09:17:12.289Z,43.85
2018-09-17T09:19:41.061Z,42.46
2018-09-17T09:22:09.793Z,42.47
2018-09-17T09:24:39.238Z,42.03
2018-09-17T09:27:10.898Z,42.47
2018-09-17T09:29:40.603Z,41.49
2018-09-17T09:32:09.803Z,41.16
2018-09-17T09:34:39.096Z,41.28
2018-09-17T09:37:08.045Z,39.63
2018-09-17T09:39:37.383Z,39.94
2018-09-17T09:42:06.088Z,39.22
2018-09-17T09:44:35.363Z,39.87
2018-09-17T09:47:04.953Z,39.90
2018-09-17T09:49:33.715Z,39.54
2018-09-17T09:52:07.919Z,39.16
2018-09-17T09:54:36.962Z,38.87
2018-09-17T09:57:05.729Z,39.60
2018-09-17T09:59:34.995Z,37.66
2018-09-17T10:02:08.767Z,37.34
2018-09-17T10:04:37.551Z,39.21
2018-09-17T10:07:06.427Z,38.85
2018-09-17T10:09:40.249Z,39.13
2018-09-17T10:12:15.639Z,39.39
2018-09-17T10:14:49.715Z,37.44
2018-09-17T10:17:23.623Z,37.69
2018-09-17T10:19:53.390Z,37.52
2018-09-17T10:22:22.140Z,35.94
2018-09-17T10:24:50.922Z,35.29
2018-09-17T10:27:19.680Z,34.89
2018-09-17T10:29:48.427Z,35.82
2018-09-17T10:32:17.347Z,34.66
2018-09-17T10:34:46.119Z,34.32
2018-09-17T10:37:14.741Z,32.58
2018-09-17T10:39:43.656Z,31.75
2018-09-17T10:42:25.989Z,31.37
2018-09-17T10:44:55.435Z,31.74
2018-09-17T10:47:25.894Z,30.77
2018-09-17T10:49:54.832Z,31.32
2018-09-17T10:52:23.563Z,32.46
2018-09-17T10:54:52.139Z,32.95
2018-09-17T10:57:20.641Z,33.34
2018-09-17T10:59:49.537Z,34.02
2018-09-17T11:02:18.441Z,35.11
2018-09-17T11:04:47.841Z,35.40
2018-09-17T11:07:16.529Z,35.86
2018-09-17T11:09:46.013Z,35.80
2018-09-17T11:12:14.718Z,36.33
2018-09-17T11:14:43.326Z,35.85
2018-09-17T11:17:11.994Z,36.80
2018-09-17T11:19:40.667Z,36.32
2018-09-17T11:22:09.471Z,36.10
2018-09-17T11:24:38.055Z,35.69
2018-09-17T11:27:06.830Z,35.09
2018-09-17T11:29:35.536Z,34.67
2018-09-17T11:32:04.471Z,33.49
2018-09-17T11:34:33.059Z,32.24
2018-09-17T11:37:01.587Z,31.94
2018-09-17T11:39:30.165Z,32.23
2018-09-17T11:41:59.011Z,30.43
2018-09-17T11:44:27.659Z,31.15
2018-09-17T11:46:56.465Z,29.16
2018-09-17T11:49:25.391Z,27.29
2018-09-17T11:51:54.267Z,28.11
2018-09-17T11:54:23.071Z,27.16
2018-09-17T11:56:51.893Z,26.57
2018-09-17T11:59:20.572Z,27.60
2018-09-17T12:01:55.603Z,26.58
2018-09-17T12:04:29.853Z,25.82
2018-09-17T12:07:03.847Z,26.45
2018-09-17T12:09:32.481Z,26.47
2018-09-17T12:12:01.327Z,26.25
2018-09-17T12:14:30.024Z,24.36
2018-09-17T12:16:58.959Z,24.75
2018-09-17T12:19:27.940Z,25.03
2018-09-17T12:21:56.493Z,25.33
2018-09-17T12:24:27.644Z,24.92
2018-09-17T12:26:56.514Z,25.09
2018-09-17T12:29:25.916Z,24.36
2018-09-17T12:31:54.582Z,24.63
2018-09-17T12:34:23.237Z,24.67
2018-09-17T12:36:51.853Z,24.32
2018-09-17T12:39:20.678Z,24.86
2018-09-17T12:41:50.334Z,24.46
2018-09-17T12:44:19.531Z,24.60
2018-09-17T12:46:48.212Z,25.50
2018-09-17T12:49:16.957Z,24.96
2018-09-17T12:51:46.560Z,25.21
2018-09-17T12:54:17.914Z,25.15
2018-09-17T12:56:47.153Z,24.07
2018-09-17T12:59:23.431Z,23.65
2018-09-17T13:01:54.201Z,23.62
2018-09-17T13:04:22.725Z,23.49
2018-09-17T13:06:51.316Z,22.39
2018-09-17T13:09:21.923Z,22.96
2018-09-17T13:11:51.007Z,22.77
2018-09-17T13:14:19.681Z,22.27
2018-09-17T13:16:49.030Z,22.55
2018-09-17T13:19:18.534Z,22.51
2018-09-17T13:21:47.342Z,22.60
2018-09-17T13:24:15.965Z,23.00
2018-09-17T13:26:44.734Z,22.42
2018-09-17T13:29:13.577Z,23.30
2018-09-17T13:31:42.248Z,24.11
2018-09-17T13:34:10.813Z,25.16
2018-09-17T13:36:39.439Z,24.86
2018-09-17T13:39:09.177Z,25.67
2018-09-17T13:41:37.833Z,26.79
2018-09-17T13:44:08.861Z,27.48
2018-09-17T13:46:37.522Z,27.81
2018-09-17T13:49:06.246Z,28.07
2018-09-17T13:51:39.960Z,28.59
2018-09-17T13:54:08.900Z,28.36
2018-09-17T13:56:37.871Z,28.57
2018-09-17T13:59:08.335Z,28.89
2018-09-17T14:01:36.993Z,29.08
2018-09-17T14:04:05.622Z,30.65
2018-09-17T14:06:34.264Z,31.10
2018-09-17T14:09:03.401Z,31.18
2018-09-17T14:11:37.235Z,31.98
2018-09-17T14:14:06.038Z,31.43
2018-09-17T14:16:36.500Z,31.36
2018-09-17T14:19:05.469Z,32.64
2018-09-17T14:21:35.781Z,32.49
2018-09-17T14:24:08.803Z,32.78
2018-09-17T14:26:38.258Z,32.75
2018-09-17T14:29:06.877Z,32.49
2018-09-17T14:32:41.349Z,32.07
2018-09-17T14:35:09.197Z,33.37
2018-09-17T14:37:36.926Z,34.30
2018-09-17T14:40:05.141Z,33.55
2018-09-17T14:42:38.578Z,33.91
2018-09-17T14:45:06.697Z,33.98
2018-09-17T14:47:35.425Z,34.81
2018-09-17T14:50:04.465Z,36.04
2018-09-17T14:52:34.475Z,34.77
2018-09-17T14:55:03.953Z,34.21
2018-09-17T14:57:31.708Z,35.73
2018-09-17T14:59:59.489Z,35.86
2018-09-17T15:02:27.279Z,35.80
2018-09-17T15:04:55.239Z,36.21
2018-09-17T15:07:23.285Z,36.40
2018-09-17T15:09:51.113Z,36.79
2018-09-17T15:12:19.270Z,36.57
2018-09-17T15:14:47.075Z,35.99
2018-09-17T15:17:15.234Z,35.79
2018-09-17T15:19:43.163Z,36.79
2018-09-17T15:22:11.132Z,36.11
2018-09-17T15:24:38.997Z,37.57
2018-09-17T15:27:07.918Z,36.15
2018-09-17T15:29:35.614Z,37.02
2018-09-17T15:32:04.057Z,37.50
2018-09-17T15:34:31.873Z,37.37
2018-09-17T15:36:59.674Z,38.09
2018-09-17T15:39:27.420Z,37.31
2018-09-17T15:41:55.127Z,38.07
2018-09-17T15:44:24.391Z,37.48
2018-09-17T15:46:53.518Z,37.49
2018-09-17T15:49:21.967Z,38.16
2018-09-17T15:51:50.654Z,37.75
2018-09-17T15:54:19.170Z,37.88
2018-09-17T15:56:47.760Z,38.50
2018-09-17T15:59:16.253Z,38.74
2018-09-17T16:01:44.983Z,38.93
2018-09-17T16:04:13.572Z,38.28
2018-09-17T16:06:42.563Z,38.60
2018-09-17T16:09:11.173Z,38.46
2018-09-17T16:11:39.752Z,39.44
2018-09-17T16:14:08.396Z,39.77
2018-09-17T16:16:37.080Z,39.99
2018-09-17T16:19:05.853Z,39.28
2018-09-17T16:21:34.497Z,38.66
2018-09-17T16:24:03.188Z,38.33
2018-09-17T16:26:31.775Z,38.40
2018-09-17T16:29:00.743Z,39.60
2018-09-17T16:31:29.548Z,39.54
2018-09-17T16:33:58.219Z,39.61
2018-09-17T16:36:27.303Z,39.72
2018-09-17T16:38:56.134Z,39.74
2018-09-17T16:41:24.904Z,39.56
2018-09-17T16:43:53.677Z,38.71
2018-09-17T16:46:22.328Z,38.01
2018-09-17T16:48:50.936Z,39.40
2018-09-17T16:51:19.480Z,39.37
2018-09-17T16:53:48.254Z,38.58
2018-09-17T16:56:16.858Z,39.76
2018-09-17T16:58:45.440Z,39.68
2018-09-17T17:01:14.665Z,38.27
2018-09-17T17:03:43.196Z,38.67
2018-09-17T17:06:11.816Z,39.83
2018-09-17T17:08:40.722Z,40.73
2018-09-17T17:11:09.666Z,40.88
2018-09-17T17:13:38.225Z,40.52
2018-09-17T17:16:06.925Z,40.88
2018-09-17T17:18:35.611Z,40.86
2018-09-17T17:21:04.273Z,40.88
2018-09-17T17:23:33.050Z,40.47
2018-09-17T17:26:01.642Z,40.31
2018-09-17T17:28:30.139Z,40.82
2018-09-17T17:30:59.042Z,40.53
2018-09-17T17:33:27.734Z,41.12
2018-09-17T17:35:56.537Z,41.44
2018-09-17T17:38:25.149Z,41.28
2018-09-17T17:41:07.306Z,41.30
2018-09-17T17:43:36.020Z,41.75
2018-09-17T17:46:04.788Z,42.44
2018-09-17T17:48:33.469Z,42.68
2018-09-17T17:51:02.115Z,42.41
2018-09-17T17:53:30.916Z,42.56
2018-09-17T17:55:59.607Z,43.25
2018-09-17T17:58:27.524Z,43.54
2018-09-17T18:00:55.588Z,43.72
2018-09-17T18:03:24.267Z,43.37
2018-09-17T18:05:53.142Z,43.67
2018-09-17T18:08:21.698Z,43.89
2018-09-17T18:10:55.324Z,44.19
2018-09-17T18:13:24.011Z,44.91
2018-09-17T18:15:52.769Z,45.08
2018-09-17T18:18:21.691Z,44.61
2018-09-17T18:20:59.704Z,45.42
2018-09-17T18:23:28.379Z,45.06
2018-09-17T18:25:56.285Z,45.68
2018-09-17T18:28:24.359Z,45.40
2018-09-17T18:30:52.600Z,45.49
2018-09-17T18:33:21.456Z,46.23
2018-09-17T18:35:50.242Z,46.17
2018-09-17T18:38:19.587Z,46.33
2018-09-17T18:40:53.908Z,46.82
2018-09-17T18:43:23.152Z,46.74
2018-09-17T18:45:51.841Z,47.48
2018-09-17T18:48:20.725Z,47.45
2018-09-17T18:50:49.414Z,47.60
2018-09-17T18:53:18.507Z,47.88
2018-09-17T18:55:47.301Z,48.04
2018-09-17T18:58:16.345Z,47.69
2018-09-17T19:00:45.199Z,48.03
2018-09-17T19:03:13.963Z,47.71
2018-09-17T19:05:42.818Z,47.53
2018-09-17T19:08:11.552Z,47.61
2018-09-17T19:10:41.318Z,47.76
2018-09-17T19:13:10.307Z,48.03
2018-09-17T19:15:44.223Z,48.05
2018-09-17T19:18:17.757Z,47.72
2018-09-17T19:20:47.761Z,46.61
2018-09-17T19:23:21.204Z,45.95
2018-09-17T19:25:50.246Z,45.20
2018-09-17T19:28:24.149Z,44.08
2018-09-17T19:33:48.182Z,43.61
2018-09-17T19:36:23.038Z,43.92
2018-09-17T19:38:57.775Z,43.73
2018-09-17T19:41:28.980Z,43.58
2018-09-17T19:43:58.267Z,43.00
2018-09-17T19:46:26.982Z,42.70
2018-09-17T19:48:55.671Z,43.22
2018-09-17T19:51:29.506Z,43.49
2018-09-17T19:53:58.673Z,43.56
2018-09-17T19:56:27.787Z,43.50
2018-09-17T19:59:01.860Z,43.13
2018-09-17T20:01:37.127Z,42.56
2018-09-17T20:04:13.431Z,42.54
2018-09-17T20:06:42.570Z,42.30
2018-09-17T20:09:14.545Z,42.40
2018-09-17T20:11:45.576Z,41.58
2018-09-17T20:14:14.733Z,42.43
2018-09-17T20:16:43.513Z,42.14
2018-09-17T20:19:12.191Z,41.70
2018-09-17T20:21:41.127Z,41.75
2018-09-17T20:24:09.747Z,42.17
2018-09-17T20:26:38.413Z,42.32
2018-09-17T20:29:07.125Z,42.04
2018-09-17T20:31:35.871Z,41.99
2018-09-17T20:34:04.727Z,42.23
2018-09-17T20:36:33.624Z,42.58
2018-09-17T20:39:02.163Z,42.36
2018-09-17T20:41:30.922Z,42.80
2018-09-17T20:43:59.600Z,43.32
2018-09-17T20:46:28.140Z,43.79
2018-09-17T20:48:56.914Z,43.44
2018-09-17T20:51:25.585Z,44.17
2018-09-17T20:53:54.476Z,44.14
2018-09-17T20:56:22.883Z,44.56
2018-09-17T20:58:51.540Z,45.25
2018-09-17T21:01:20.247Z,45.41
2018-09-17T21:03:49.049Z,45.94
2018-09-17T21:06:17.861Z,45.83
2018-09-17T21:08:46.471Z,46.51
2018-09-17T21:11:15.000Z,45.83
2018-09-17T21:13:43.581Z,46.72
2018-09-17T21:16:12.409Z,46.51
2018-09-17T21:18:48.980Z,46.98
2018-09-17T21:21:17.715Z,47.47
2018-09-17T21:23:46.188Z,47.65
2018-09-17T21:26:14.793Z,48.07
2018-09-17T21:28:43.320Z,48.34
2018-09-17T21:31:11.846Z,48.11
2018-09-17T21:33:40.416Z,48.63
2018-09-17T21:36:09.229Z,49.21
2018-09-17T21:38:37.825Z,49.66
2018-09-17T21:41:06.575Z,49.45
2018-09-17T21:43:35.062Z,49.59
2018-09-17T21:46:03.751Z,50.44
2018-09-17T21:48:32.399Z,50.66
2018-09-17T21:51:01.235Z,50.50
2018-09-17T21:53:29.830Z,50.59
2018-09-17T21:55:58.519Z,51.41
2018-09-17T21:58:27.179Z,50.93
2018-09-17T22:01:02.065Z,50.90
2018-09-17T22:03:32.622Z,51.02
2018-09-17T22:06:01.659Z,51.40
2018-09-17T22:08:30.908Z,51.97
2018-09-17T22:10:59.591Z,51.45
2018-09-17T22:13:28.644Z,52.00
2018-09-17T22:15:57.492Z,51.83
2018-09-17T22:18:26.162Z,51.65
2018-09-17T22:20:54.842Z,52.37
2018-09-17T22:23:23.449Z,52.18
2018-09-17T22:25:52.023Z,52.66
2018-09-17T22:28:20.502Z,52.64
2018-09-17T22:30:49.441Z,52.74
2018-09-17T22:33:17.989Z,53.31
2018-09-17T22:35:46.544Z,53.05
2018-09-17T22:38:15.048Z,53.76
2018-09-17T22:40:43.529Z,53.42
2018-09-17T22:43:12.125Z,53.51
2018-09-17T22:45:40.799Z,54.22
2018-09-17T22:48:09.320Z,53.96
2018-09-17T22:50:37.912Z,54.03
2018-09-17T22:53:06.532Z,54.43
2018-09-17T22:55:35.043Z,54.67
2018-09-17T22:58:03.749Z,54.47
2018-09-17T23:00:32.499Z,54.97
2018-09-17T23:03:01.127Z,55.11
2018-09-17T23:05:29.965Z,55.37
2018-09-17T23:07:58.649Z,55.46
2018-09-17T23:10:27.295Z,55.29
2018-09-17T23:12:55.899Z,55.63
2018-09-17T23:15:24.546Z,55.61
2018-09-17T23:17:53.404Z,55.61
2018-09-17T23:20:23.501Z,55.96
2018-09-17T23:22:52.321Z,56.36
2018-09-17T23:25:22.013Z,55.58
2018-09-17T23:27:51.869Z,55.13
2018-09-17T23:30:20.738Z,56.15
2018-09-17T23:32:49.706Z,55.93
2018-09-17T23:35:19.329Z,55.38
2018-09-17T23:37:48.225Z,55.88
2018-09-17T23:40:20.596Z,55.82
2018-09-17T23:42:54.532Z,55.54
2018-09-17T23:45:23.422Z,55.52
2018-09-17T23:47:52.258Z,55.72
2018-09-17T23:50:21.143Z,55.57
2018-09-17T23:52:50.070Z,56.26
2018-09-17T23:55:18.587Z,55.61
2018-09-17T23:57:47.857Z,56.12
